sensor_id;sensor_type;location;lat;lon;timestamp;temperature;humidity
4433;DHT22;2229;48.708;9.706;2023-05-24T00:02:06;15.00;93.10
4433;DHT22;2229;48.708;9.706;2023-05-24T00:04:35;15.00;93.10
4433;DHT22;2229;48.708;9.706;2023-05-24T00:07:04;15.00;93.20
4433;DHT22;2229;48.708;9.706;2023-05-24T00:09:32;15.00;93.20
4433;DHT22;2229;48.708;9.706;2023-05-24T00:11:59;15.00;93.20
4433;DHT22;2229;48.708;9.706;2023-05-24T00:14:27;15.00;93.10
4433;DHT22;2229;48.708;9.706;2023-05-24T00:16:55;14.90;93.00
4433;DHT22;2229;48.708;9.706;2023-05-24T00:19:22;14.90;93.00
4433;DHT22;2229;48.708;9.706;2023-05-24T00:21:52;14.90;93.00
4433;DHT22;2229;48.708;9.706;2023-05-24T00:24:20;14.90;93.10
4433;DHT22;2229;48.708;9.706;2023-05-24T00:26:47;14.90;92.90
4433;DHT22;2229;48.708;9.706;2023-05-24T00:29:14;14.90;92.80
4433;DHT22;2229;48.708;9.706;2023-05-24T00:31:41;14.90;92.80
4433;DHT22;2229;48.708;9.706;2023-05-24T00:34:09;14.80;92.90
4433;DHT22;2229;48.708;9.706;2023-05-24T00:36:36;14.80;92.60
4433;DHT22;2229;48.708;9.706;2023-05-24T00:39:05;14.70;92.50
4433;DHT22;2229;48.708;9.706;2023-05-24T00:41:32;14.70;92.50
4433;DHT22;2229;48.708;9.706;2023-05-24T00:43:59;14.70;92.50
4433;DHT22;2229;48.708;9.706;2023-05-24T00:46:29;14.60;92.40
4433;DHT22;2229;48.708;9.706;2023-05-24T00:48:59;14.60;92.30
4433;DHT22;2229;48.708;9.706;2023-05-24T00:51:27;14.50;92.30
4433;DHT22;2229;48.708;9.706;2023-05-24T00:53:55;14.50;92.30
4433;DHT22;2229;48.708;9.706;2023-05-24T00:56:24;14.40;92.40
4433;DHT22;2229;48.708;9.706;2023-05-24T00:58:52;14.40;92.40
4433;DHT22;2229;48.708;9.706;2023-05-24T01:01:21;14.40;92.40
4433;DHT22;2229;48.708;9.706;2023-05-24T01:03:51;14.40;92.50
4433;DHT22;2229;48.708;9.706;2023-05-24T01:06:18;14.40;92.80
4433;DHT22;2229;48.708;9.706;2023-05-24T01:09:00;14.30;92.40
4433;DHT22;2229;48.708;9.706;2023-05-24T01:11:38;14.30;92.40
4433;DHT22;2229;48.708;9.706;2023-05-24T01:14:15;14.30;92.40
4433;DHT22;2229;48.708;9.706;2023-05-24T01:16:54;14.30;92.40
4433;DHT22;2229;48.708;9.706;2023-05-24T01:19:49;14.30;92.40
4433;DHT22;2229;48.708;9.706;2023-05-24T01:22:29;14.30;92.40
4433;DHT22;2229;48.708;9.706;2023-05-24T01:25:02;14.30;92.40
4433;DHT22;2229;48.708;9.706;2023-05-24T01:27:33;14.20;92.30
4433;DHT22;2229;48.708;9.706;2023-05-24T01:30:02;14.30;92.30
4433;DHT22;2229;48.708;9.706;2023-05-24T01:32:30;14.20;92.20
4433;DHT22;2229;48.708;9.706;2023-05-24T01:34:57;14.30;92.20
4433;DHT22;2229;48.708;9.706;2023-05-24T01:37:25;14.20;92.20
4433;DHT22;2229;48.708;9.706;2023-05-24T01:39:52;14.20;92.20
4433;DHT22;2229;48.708;9.706;2023-05-24T01:42:25;14.20;92.30
4433;DHT22;2229;48.708;9.706;2023-05-24T01:45:04;14.20;92.30
4433;DHT22;2229;48.708;9.706;2023-05-24T01:47:46;14.20;92.20
4433;DHT22;2229;48.708;9.706;2023-05-24T01:50:21;14.20;92.20
4433;DHT22;2229;48.708;9.706;2023-05-24T01:52:51;14.20;92.20
4433;DHT22;2229;48.708;9.706;2023-05-24T01:55:19;14.20;92.20
4433;DHT22;2229;48.708;9.706;2023-05-24T01:57:50;14.20;92.20
4433;DHT22;2229;48.708;9.706;2023-05-24T02:00:21;14.10;92.10
4433;DHT22;2229;48.708;9.706;2023-05-24T02:02:48;14.10;92.20
4433;DHT22;2229;48.708;9.706;2023-05-24T02:05:18;14.10;92.10
4433;DHT22;2229;48.708;9.706;2023-05-24T02:07:47;14.00;92.20
4433;DHT22;2229;48.708;9.706;2023-05-24T02:10:15;14.10;92.20
4433;DHT22;2229;48.708;9.706;2023-05-24T02:12:44;14.00;92.20
4433;DHT22;2229;48.708;9.706;2023-05-24T02:15:11;14.00;92.20
4433;DHT22;2229;48.708;9.706;2023-05-24T02:17:42;14.00;92.30
4433;DHT22;2229;48.708;9.706;2023-05-24T02:20:11;13.90;92.30
4433;DHT22;2229;48.708;9.706;2023-05-24T02:22:39;13.90;92.30
4433;DHT22;2229;48.708;9.706;2023-05-24T02:25:07;13.90;92.30
4433;DHT22;2229;48.708;9.706;2023-05-24T02:27:35;13.90;92.20
4433;DHT22;2229;48.708;9.706;2023-05-24T02:30:03;13.90;92.30
4433;DHT22;2229;48.708;9.706;2023-05-24T02:32:31;13.80;92.20
4433;DHT22;2229;48.708;9.706;2023-05-24T02:35:00;13.80;92.20
4433;DHT22;2229;48.708;9.706;2023-05-24T02:37:28;13.80;92.20
4433;DHT22;2229;48.708;9.706;2023-05-24T02:39:55;13.80;92.20
4433;DHT22;2229;48.708;9.706;2023-05-24T02:42:23;13.70;92.20
4433;DHT22;2229;48.708;9.706;2023-05-24T02:44:50;13.70;92.20
4433;DHT22;2229;48.708;9.706;2023-05-24T02:47:18;13.70;92.20
4433;DHT22;2229;48.708;9.706;2023-05-24T02:49:46;13.70;92.30
4433;DHT22;2229;48.708;9.706;2023-05-24T02:52:14;13.60;92.20
4433;DHT22;2229;48.708;9.706;2023-05-24T02:54:46;13.60;92.20
4433;DHT22;2229;48.708;9.706;2023-05-24T02:57:13;13.60;92.20
4433;DHT22;2229;48.708;9.706;2023-05-24T02:59:42;13.60;92.30
4433;DHT22;2229;48.708;9.706;2023-05-24T03:02:11;13.50;92.20
4433;DHT22;2229;48.708;9.706;2023-05-24T03:04:40;13.50;92.20
4433;DHT22;2229;48.708;9.706;2023-05-24T03:07:10;13.50;92.20
4433;DHT22;2229;48.708;9.706;2023-05-24T03:09:38;13.40;92.10
4433;DHT22;2229;48.708;9.706;2023-05-24T03:12:06;13.40;92.00
4433;DHT22;2229;48.708;9.706;2023-05-24T03:14:33;13.30;91.90
4433;DHT22;2229;48.708;9.706;2023-05-24T03:17:00;13.30;91.90
4433;DHT22;2229;48.708;9.706;2023-05-24T03:19:28;13.20;91.90
4433;DHT22;2229;48.708;9.706;2023-05-24T03:21:56;13.20;91.90
4433;DHT22;2229;48.708;9.706;2023-05-24T03:24:23;13.10;91.80
4433;DHT22;2229;48.708;9.706;2023-05-24T03:26:53;13.10;91.70
4433;DHT22;2229;48.708;9.706;2023-05-24T03:29:20;13.00;91.60
4433;DHT22;2229;48.708;9.706;2023-05-24T03:31:48;13.00;91.60
4433;DHT22;2229;48.708;9.706;2023-05-24T03:34:15;12.90;91.60
4433;DHT22;2229;48.708;9.706;2023-05-24T03:36:43;12.90;91.60
4433;DHT22;2229;48.708;9.706;2023-05-24T03:39:11;12.90;91.70
4433;DHT22;2229;48.708;9.706;2023-05-24T03:41:54;12.90;91.70
4433;DHT22;2229;48.708;9.706;2023-05-24T03:44:24;12.80;91.60
4433;DHT22;2229;48.708;9.706;2023-05-24T03:46:52;12.80;91.70
4433;DHT22;2229;48.708;9.706;2023-05-24T03:49:19;12.80;91.70
4433;DHT22;2229;48.708;9.706;2023-05-24T03:51:46;12.80;91.70
4433;DHT22;2229;48.708;9.706;2023-05-24T03:54:13;12.70;91.70
4433;DHT22;2229;48.708;9.706;2023-05-24T03:56:41;12.70;91.70
4433;DHT22;2229;48.708;9.706;2023-05-24T03:59:09;12.70;91.70
4433;DHT22;2229;48.708;9.706;2023-05-24T04:01:37;12.70;91.80
4433;DHT22;2229;48.708;9.706;2023-05-24T04:04:05;12.70;91.80
4433;DHT22;2229;48.708;9.706;2023-05-24T04:06:32;12.80;91.90
4433;DHT22;2229;48.708;9.706;2023-05-24T04:09:02;12.70;91.90
4433;DHT22;2229;48.708;9.706;2023-05-24T04:11:30;12.70;91.90
4433;DHT22;2229;48.708;9.706;2023-05-24T04:13:59;12.70;92.00
4433;DHT22;2229;48.708;9.706;2023-05-24T04:16:30;12.70;92.00
4433;DHT22;2229;48.708;9.706;2023-05-24T04:18:59;12.80;92.10
4433;DHT22;2229;48.708;9.706;2023-05-24T04:21:29;12.80;92.20
4433;DHT22;2229;48.708;9.706;2023-05-24T04:23:58;12.80;92.30
4433;DHT22;2229;48.708;9.706;2023-05-24T04:26:27;12.80;92.30
4433;DHT22;2229;48.708;9.706;2023-05-24T04:28:55;12.80;92.40
4433;DHT22;2229;48.708;9.706;2023-05-24T04:31:23;12.90;92.40
4433;DHT22;2229;48.708;9.706;2023-05-24T04:33:52;12.90;92.40
4433;DHT22;2229;48.708;9.706;2023-05-24T04:36:20;12.90;92.40
4433;DHT22;2229;48.708;9.706;2023-05-24T04:38:48;12.90;92.40
4433;DHT22;2229;48.708;9.706;2023-05-24T04:41:18;12.90;92.40
4433;DHT22;2229;48.708;9.706;2023-05-24T04:43:47;13.00;92.40
4433;DHT22;2229;48.708;9.706;2023-05-24T04:46:15;13.00;92.40
4433;DHT22;2229;48.708;9.706;2023-05-24T04:48:42;13.00;92.40
4433;DHT22;2229;48.708;9.706;2023-05-24T04:51:10;13.00;92.50
4433;DHT22;2229;48.708;9.706;2023-05-24T04:53:38;13.10;92.50
4433;DHT22;2229;48.708;9.706;2023-05-24T04:56:05;13.10;92.50
4433;DHT22;2229;48.708;9.706;2023-05-24T04:58:33;13.10;92.50
4433;DHT22;2229;48.708;9.706;2023-05-24T05:01:01;13.10;92.50
4433;DHT22;2229;48.708;9.706;2023-05-24T05:03:29;13.10;92.50
4433;DHT22;2229;48.708;9.706;2023-05-24T05:05:57;13.20;92.60
4433;DHT22;2229;48.708;9.706;2023-05-24T05:08:26;13.20;92.60
4433;DHT22;2229;48.708;9.706;2023-05-24T05:10:53;13.20;92.50
4433;DHT22;2229;48.708;9.706;2023-05-24T05:13:21;13.20;92.50
4433;DHT22;2229;48.708;9.706;2023-05-24T05:15:48;13.20;92.40
4433;DHT22;2229;48.708;9.706;2023-05-24T05:18:15;13.20;92.40
4433;DHT22;2229;48.708;9.706;2023-05-24T05:20:43;13.20;92.70
4433;DHT22;2229;48.708;9.706;2023-05-24T05:23:10;13.30;92.50
4433;DHT22;2229;48.708;9.706;2023-05-24T05:25:38;13.30;92.50
4433;DHT22;2229;48.708;9.706;2023-05-24T05:28:06;13.30;92.50
4433;DHT22;2229;48.708;9.706;2023-05-24T05:30:33;13.40;92.50
4433;DHT22;2229;48.708;9.706;2023-05-24T05:33:01;13.40;92.30
4433;DHT22;2229;48.708;9.706;2023-05-24T05:35:30;13.40;92.20
4433;DHT22;2229;48.708;9.706;2023-05-24T05:37:58;13.40;92.20
4433;DHT22;2229;48.708;9.706;2023-05-24T05:40:25;13.40;92.00
4433;DHT22;2229;48.708;9.706;2023-05-24T05:42:53;13.40;91.90
4433;DHT22;2229;48.708;9.706;2023-05-24T05:45:21;13.40;91.90
4433;DHT22;2229;48.708;9.706;2023-05-24T05:47:48;13.40;91.80
4433;DHT22;2229;48.708;9.706;2023-05-24T05:50:16;13.40;91.80
4433;DHT22;2229;48.708;9.706;2023-05-24T05:52:43;13.40;91.60
4433;DHT22;2229;48.708;9.706;2023-05-24T05:55:10;13.40;91.50
4433;DHT22;2229;48.708;9.706;2023-05-24T05:57:38;13.40;91.50
4433;DHT22;2229;48.708;9.706;2023-05-24T06:00:08;13.40;91.50
4433;DHT22;2229;48.708;9.706;2023-05-24T06:02:39;13.40;91.30
4433;DHT22;2229;48.708;9.706;2023-05-24T06:05:07;13.40;91.10
4433;DHT22;2229;48.708;9.706;2023-05-24T06:07:35;13.30;90.80
4433;DHT22;2229;48.708;9.706;2023-05-24T06:10:04;13.30;90.70
4433;DHT22;2229;48.708;9.706;2023-05-24T06:12:31;13.30;90.80
4433;DHT22;2229;48.708;9.706;2023-05-24T06:14:59;13.20;91.00
4433;DHT22;2229;48.708;9.706;2023-05-24T06:17:28;13.20;90.80
4433;DHT22;2229;48.708;9.706;2023-05-24T06:19:55;13.20;90.80
4433;DHT22;2229;48.708;9.706;2023-05-24T06:22:22;13.30;90.90
4433;DHT22;2229;48.708;9.706;2023-05-24T06:24:50;13.30;90.80
4433;DHT22;2229;48.708;9.706;2023-05-24T06:27:17;13.30;90.80
4433;DHT22;2229;48.708;9.706;2023-05-24T06:29:44;13.30;90.70
4433;DHT22;2229;48.708;9.706;2023-05-24T06:32:11;13.30;90.70
4433;DHT22;2229;48.708;9.706;2023-05-24T06:34:39;13.30;90.80
4433;DHT22;2229;48.708;9.706;2023-05-24T06:37:07;13.40;90.80
4433;DHT22;2229;48.708;9.706;2023-05-24T06:39:35;13.40;90.90
4433;DHT22;2229;48.708;9.706;2023-05-24T06:42:03;13.50;90.80
4433;DHT22;2229;48.708;9.706;2023-05-24T06:44:35;13.60;90.70
4433;DHT22;2229;48.708;9.706;2023-05-24T06:47:03;13.60;90.80
4433;DHT22;2229;48.708;9.706;2023-05-24T06:49:30;13.70;90.80
4433;DHT22;2229;48.708;9.706;2023-05-24T06:51:59;13.80;90.90
4433;DHT22;2229;48.708;9.706;2023-05-24T06:54:26;13.90;90.80
4433;DHT22;2229;48.708;9.706;2023-05-24T06:56:53;14.00;90.70
4433;DHT22;2229;48.708;9.706;2023-05-24T06:59:22;14.10;90.60
4433;DHT22;2229;48.708;9.706;2023-05-24T07:01:49;14.20;90.50
4433;DHT22;2229;48.708;9.706;2023-05-24T07:04:22;14.30;90.40
4433;DHT22;2229;48.708;9.706;2023-05-24T07:06:50;14.30;90.20
4433;DHT22;2229;48.708;9.706;2023-05-24T07:09:38;14.30;90.10
4433;DHT22;2229;48.708;9.706;2023-05-24T07:12:05;14.40;90.10
4433;DHT22;2229;48.708;9.706;2023-05-24T07:14:32;14.40;90.10
4433;DHT22;2229;48.708;9.706;2023-05-24T07:17:00;14.50;90.10
4433;DHT22;2229;48.708;9.706;2023-05-24T07:19:27;14.60;90.00
4433;DHT22;2229;48.708;9.706;2023-05-24T07:21:54;14.60;89.70
4433;DHT22;2229;48.708;9.706;2023-05-24T07:24:24;14.70;90.00
4433;DHT22;2229;48.708;9.706;2023-05-24T07:26:53;14.70;89.90
4433;DHT22;2229;48.708;9.706;2023-05-24T07:29:23;14.80;89.90
4433;DHT22;2229;48.708;9.706;2023-05-24T07:31:51;14.90;89.60
4433;DHT22;2229;48.708;9.706;2023-05-24T07:34:20;14.90;89.10
4433;DHT22;2229;48.708;9.706;2023-05-24T07:36:49;14.90;88.40
4433;DHT22;2229;48.708;9.706;2023-05-24T07:39:16;15.00;88.40
4433;DHT22;2229;48.708;9.706;2023-05-24T07:41:44;15.10;88.40
4433;DHT22;2229;48.708;9.706;2023-05-24T07:44:13;15.10;88.10
4433;DHT22;2229;48.708;9.706;2023-05-24T07:46:40;15.20;87.70
4433;DHT22;2229;48.708;9.706;2023-05-24T07:49:07;15.20;87.40
4433;DHT22;2229;48.708;9.706;2023-05-24T07:51:35;15.20;87.30
4433;DHT22;2229;48.708;9.706;2023-05-24T07:54:03;15.20;87.30
4433;DHT22;2229;48.708;9.706;2023-05-24T07:56:30;15.20;87.10
4433;DHT22;2229;48.708;9.706;2023-05-24T07:58:58;15.10;86.70
4433;DHT22;2229;48.708;9.706;2023-05-24T08:01:30;15.00;86.70
4433;DHT22;2229;48.708;9.706;2023-05-24T08:03:59;14.90;86.70
4433;DHT22;2229;48.708;9.706;2023-05-24T08:06:28;14.80;86.70
4433;DHT22;2229;48.708;9.706;2023-05-24T08:08:56;14.80;87.00
4433;DHT22;2229;48.708;9.706;2023-05-24T08:11:24;14.80;87.80
4433;DHT22;2229;48.708;9.706;2023-05-24T08:13:51;14.90;87.40
4433;DHT22;2229;48.708;9.706;2023-05-24T08:16:18;14.90;88.00
4433;DHT22;2229;48.708;9.706;2023-05-24T08:18:46;14.90;87.30
4433;DHT22;2229;48.708;9.706;2023-05-24T08:21:14;15.00;87.30
4433;DHT22;2229;48.708;9.706;2023-05-24T08:23:41;14.90;86.90
4433;DHT22;2229;48.708;9.706;2023-05-24T08:26:09;14.90;86.90
4433;DHT22;2229;48.708;9.706;2023-05-24T08:28:36;14.90;87.10
4433;DHT22;2229;48.708;9.706;2023-05-24T08:31:03;14.90;87.30
4433;DHT22;2229;48.708;9.706;2023-05-24T08:33:31;14.90;87.20
4433;DHT22;2229;48.708;9.706;2023-05-24T08:35:59;14.90;87.20
4433;DHT22;2229;48.708;9.706;2023-05-24T08:38:26;14.90;87.40
4433;DHT22;2229;48.708;9.706;2023-05-24T08:40:54;15.00;87.60
4433;DHT22;2229;48.708;9.706;2023-05-24T08:43:22;15.00;87.60
4433;DHT22;2229;48.708;9.706;2023-05-24T08:45:51;15.10;87.60
4433;DHT22;2229;48.708;9.706;2023-05-24T08:48:19;15.20;87.50
4433;DHT22;2229;48.708;9.706;2023-05-24T08:50:47;15.30;86.90
4433;DHT22;2229;48.708;9.706;2023-05-24T08:53:17;15.40;86.00
4433;DHT22;2229;48.708;9.706;2023-05-24T08:55:44;15.40;85.90
4433;DHT22;2229;48.708;9.706;2023-05-24T08:58:12;15.40;85.50
4433;DHT22;2229;48.708;9.706;2023-05-24T09:00:39;15.50;84.70
4433;DHT22;2229;48.708;9.706;2023-05-24T09:03:07;15.60;85.20
4433;DHT22;2229;48.708;9.706;2023-05-24T09:05:36;15.70;84.90
4433;DHT22;2229;48.708;9.706;2023-05-24T09:08:03;15.70;84.70
4433;DHT22;2229;48.708;9.706;2023-05-24T09:10:33;15.70;85.00
4433;DHT22;2229;48.708;9.706;2023-05-24T09:13:01;15.70;84.20
4433;DHT22;2229;48.708;9.706;2023-05-24T09:15:29;15.70;84.00
4433;DHT22;2229;48.708;9.706;2023-05-24T09:17:56;15.70;83.90
4433;DHT22;2229;48.708;9.706;2023-05-24T09:20:23;15.80;83.60
4433;DHT22;2229;48.708;9.706;2023-05-24T09:22:51;15.80;83.70
4433;DHT22;2229;48.708;9.706;2023-05-24T09:25:19;15.90;83.20
4433;DHT22;2229;48.708;9.706;2023-05-24T09:27:52;15.90;82.90
4433;DHT22;2229;48.708;9.706;2023-05-24T09:30:19;16.00;82.70
4433;DHT22;2229;48.708;9.706;2023-05-24T09:32:55;15.90;81.70
4433;DHT22;2229;48.708;9.706;2023-05-24T09:35:23;16.00;81.00
4433;DHT22;2229;48.708;9.706;2023-05-24T09:37:53;16.00;80.30
4433;DHT22;2229;48.708;9.706;2023-05-24T09:40:22;15.90;79.80
4433;DHT22;2229;48.708;9.706;2023-05-24T09:43:03;15.90;79.60
4433;DHT22;2229;48.708;9.706;2023-05-24T09:45:40;15.90;79.90
4433;DHT22;2229;48.708;9.706;2023-05-24T09:48:11;15.90;80.10
4433;DHT22;2229;48.708;9.706;2023-05-24T09:50:39;15.90;80.20
4433;DHT22;2229;48.708;9.706;2023-05-24T09:53:07;15.90;80.30
4433;DHT22;2229;48.708;9.706;2023-05-24T09:55:36;15.80;80.20
4433;DHT22;2229;48.708;9.706;2023-05-24T09:58:06;15.80;80.00
4433;DHT22;2229;48.708;9.706;2023-05-24T10:00:34;15.80;80.10
4433;DHT22;2229;48.708;9.706;2023-05-24T10:03:02;15.80;80.20
4433;DHT22;2229;48.708;9.706;2023-05-24T10:05:31;15.90;80.60
4433;DHT22;2229;48.708;9.706;2023-05-24T10:08:00;15.90;80.40
4433;DHT22;2229;48.708;9.706;2023-05-24T10:10:28;16.00;80.50
4433;DHT22;2229;48.708;9.706;2023-05-24T10:12:56;16.10;80.50
4433;DHT22;2229;48.708;9.706;2023-05-24T10:15:25;16.10;80.60
4433;DHT22;2229;48.708;9.706;2023-05-24T10:17:53;16.10;80.40
4433;DHT22;2229;48.708;9.706;2023-05-24T10:20:21;16.10;80.20
4433;DHT22;2229;48.708;9.706;2023-05-24T10:22:51;16.00;80.20
4433;DHT22;2229;48.708;9.706;2023-05-24T10:25:21;16.10;80.50
4433;DHT22;2229;48.708;9.706;2023-05-24T10:27:53;16.00;80.50
4433;DHT22;2229;48.708;9.706;2023-05-24T10:30:27;16.00;80.40
4433;DHT22;2229;48.708;9.706;2023-05-24T10:32:58;15.90;80.40
4433;DHT22;2229;48.708;9.706;2023-05-24T10:35:29;15.80;80.50
4433;DHT22;2229;48.708;9.706;2023-05-24T10:37:58;15.80;80.70
4433;DHT22;2229;48.708;9.706;2023-05-24T10:40:31;15.70;80.50
4433;DHT22;2229;48.708;9.706;2023-05-24T10:42:58;15.60;80.60
4433;DHT22;2229;48.708;9.706;2023-05-24T10:45:35;15.50;80.70
4433;DHT22;2229;48.708;9.706;2023-05-24T10:48:34;15.50;80.90
4433;DHT22;2229;48.708;9.706;2023-05-24T10:51:32;15.40;81.00
4433;DHT22;2229;48.708;9.706;2023-05-24T10:54:17;15.40;81.30
4433;DHT22;2229;48.708;9.706;2023-05-24T10:56:45;15.30;81.20
4433;DHT22;2229;48.708;9.706;2023-05-24T10:59:27;15.30;81.30
4433;DHT22;2229;48.708;9.706;2023-05-24T11:01:57;15.30;81.40
4433;DHT22;2229;48.708;9.706;2023-05-24T11:04:26;15.20;81.50
4433;DHT22;2229;48.708;9.706;2023-05-24T11:07:00;15.20;81.50
4433;DHT22;2229;48.708;9.706;2023-05-24T11:09:28;15.10;81.10
4433;DHT22;2229;48.708;9.706;2023-05-24T11:11:58;15.10;80.70
4433;DHT22;2229;48.708;9.706;2023-05-24T11:14:28;15.10;80.80
4433;DHT22;2229;48.708;9.706;2023-05-24T11:16:58;15.00;81.10
4433;DHT22;2229;48.708;9.706;2023-05-24T11:19:31;15.00;81.40
4433;DHT22;2229;48.708;9.706;2023-05-24T11:22:01;15.00;81.50
4433;DHT22;2229;48.708;9.706;2023-05-24T11:24:29;15.00;81.70
4433;DHT22;2229;48.708;9.706;2023-05-24T11:26:56;15.00;81.40
4433;DHT22;2229;48.708;9.706;2023-05-24T11:29:24;15.00;81.40
4433;DHT22;2229;48.708;9.706;2023-05-24T11:31:52;14.90;81.50
4433;DHT22;2229;48.708;9.706;2023-05-24T11:34:21;15.00;81.50
4433;DHT22;2229;48.708;9.706;2023-05-24T11:36:49;15.00;81.50
4433;DHT22;2229;48.708;9.706;2023-05-24T11:39:18;15.00;81.70
4433;DHT22;2229;48.708;9.706;2023-05-24T11:41:46;15.10;81.60
4433;DHT22;2229;48.708;9.706;2023-05-24T11:44:16;15.10;81.50
4433;DHT22;2229;48.708;9.706;2023-05-24T11:46:44;15.10;81.50
4433;DHT22;2229;48.708;9.706;2023-05-24T11:49:13;15.10;81.30
4433;DHT22;2229;48.708;9.706;2023-05-24T11:51:42;15.10;81.10
4433;DHT22;2229;48.708;9.706;2023-05-24T11:54:09;15.10;81.10
4433;DHT22;2229;48.708;9.706;2023-05-24T11:56:37;15.20;81.30
4433;DHT22;2229;48.708;9.706;2023-05-24T11:59:10;15.20;81.20
4433;DHT22;2229;48.708;9.706;2023-05-24T12:01:40;15.30;81.10
4433;DHT22;2229;48.708;9.706;2023-05-24T12:04:07;15.40;81.20
4433;DHT22;2229;48.708;9.706;2023-05-24T12:06:37;15.50;81.40
4433;DHT22;2229;48.708;9.706;2023-05-24T12:09:07;15.60;81.50
4433;DHT22;2229;48.708;9.706;2023-05-24T12:11:39;15.70;81.10
4433;DHT22;2229;48.708;9.706;2023-05-24T12:14:11;15.80;80.60
4433;DHT22;2229;48.708;9.706;2023-05-24T12:16:41;16.00;80.00
4433;DHT22;2229;48.708;9.706;2023-05-24T12:19:12;16.10;79.40
4433;DHT22;2229;48.708;9.706;2023-05-24T12:21:40;16.20;79.00
4433;DHT22;2229;48.708;9.706;2023-05-24T12:24:10;16.20;78.00
4433;DHT22;2229;48.708;9.706;2023-05-24T12:26:40;16.30;77.80
4433;DHT22;2229;48.708;9.706;2023-05-24T12:29:09;16.40;77.70
4433;DHT22;2229;48.708;9.706;2023-05-24T12:31:38;16.50;77.20
4433;DHT22;2229;48.708;9.706;2023-05-24T12:34:06;16.50;76.50
4433;DHT22;2229;48.708;9.706;2023-05-24T12:36:33;16.60;76.70
4433;DHT22;2229;48.708;9.706;2023-05-24T12:39:17;16.70;76.70
4433;DHT22;2229;48.708;9.706;2023-05-24T12:41:49;16.90;76.60
4433;DHT22;2229;48.708;9.706;2023-05-24T12:44:17;17.10;76.70
4433;DHT22;2229;48.708;9.706;2023-05-24T12:46:47;17.30;75.50
4433;DHT22;2229;48.708;9.706;2023-05-24T12:49:16;17.60;75.20
4433;DHT22;2229;48.708;9.706;2023-05-24T12:51:43;17.90;74.50
4433;DHT22;2229;48.708;9.706;2023-05-24T12:54:10;18.20;73.70
4433;DHT22;2229;48.708;9.706;2023-05-24T12:56:38;18.40;72.80
4433;DHT22;2229;48.708;9.706;2023-05-24T12:59:06;18.70;73.00
4433;DHT22;2229;48.708;9.706;2023-05-24T13:01:33;18.90;72.60
4433;DHT22;2229;48.708;9.706;2023-05-24T13:04:00;19.10;70.50
4433;DHT22;2229;48.708;9.706;2023-05-24T13:06:28;19.20;69.70
4433;DHT22;2229;48.708;9.706;2023-05-24T13:08:55;19.10;66.40
4433;DHT22;2229;48.708;9.706;2023-05-24T13:11:22;19.00;67.30
4433;DHT22;2229;48.708;9.706;2023-05-24T13:13:52;19.00;66.80
4433;DHT22;2229;48.708;9.706;2023-05-24T13:16:19;19.00;67.90
4433;DHT22;2229;48.708;9.706;2023-05-24T13:18:46;19.00;68.90
4433;DHT22;2229;48.708;9.706;2023-05-24T13:21:14;19.10;69.10
4433;DHT22;2229;48.708;9.706;2023-05-24T13:23:42;19.10;68.60
4433;DHT22;2229;48.708;9.706;2023-05-24T13:26:09;19.10;68.90
4433;DHT22;2229;48.708;9.706;2023-05-24T13:28:38;19.10;69.60
4433;DHT22;2229;48.708;9.706;2023-05-24T13:31:07;19.00;67.30
4433;DHT22;2229;48.708;9.706;2023-05-24T13:33:34;19.10;67.90
4433;DHT22;2229;48.708;9.706;2023-05-24T13:36:02;19.10;67.30
4433;DHT22;2229;48.708;9.706;2023-05-24T13:38:30;18.90;64.60
4433;DHT22;2229;48.708;9.706;2023-05-24T13:40:58;18.70;63.40
4433;DHT22;2229;48.708;9.706;2023-05-24T13:43:25;18.40;64.50
4433;DHT22;2229;48.708;9.706;2023-05-24T13:45:52;18.30;65.50
4433;DHT22;2229;48.708;9.706;2023-05-24T13:48:21;18.30;66.50
4433;DHT22;2229;48.708;9.706;2023-05-24T13:50:48;18.10;65.20
4433;DHT22;2229;48.708;9.706;2023-05-24T13:53:16;18.00;64.70
4433;DHT22;2229;48.708;9.706;2023-05-24T13:55:43;17.90;65.40
4433;DHT22;2229;48.708;9.706;2023-05-24T13:58:10;17.80;65.70
4433;DHT22;2229;48.708;9.706;2023-05-24T14:00:37;17.70;66.30
4433;DHT22;2229;48.708;9.706;2023-05-24T14:03:04;17.70;66.30
4433;DHT22;2229;48.708;9.706;2023-05-24T14:05:33;17.70;67.00
4433;DHT22;2229;48.708;9.706;2023-05-24T14:08:00;17.60;65.40
4433;DHT22;2229;48.708;9.706;2023-05-24T14:10:32;17.50;65.50
4433;DHT22;2229;48.708;9.706;2023-05-24T14:13:01;17.50;66.70
4433;DHT22;2229;48.708;9.706;2023-05-24T14:15:29;17.50;67.30
4433;DHT22;2229;48.708;9.706;2023-05-24T14:17:56;17.60;67.30
4433;DHT22;2229;48.708;9.706;2023-05-24T14:20:25;17.70;66.20
4433;DHT22;2229;48.708;9.706;2023-05-24T14:22:54;17.80;65.30
4433;DHT22;2229;48.708;9.706;2023-05-24T14:25:21;18.00;64.40
4433;DHT22;2229;48.708;9.706;2023-05-24T14:27:48;18.10;64.00
4433;DHT22;2229;48.708;9.706;2023-05-24T14:30:15;18.30;63.70
4433;DHT22;2229;48.708;9.706;2023-05-24T14:32:42;18.40;63.10
4433;DHT22;2229;48.708;9.706;2023-05-24T14:35:10;18.60;62.80
4433;DHT22;2229;48.708;9.706;2023-05-24T14:37:37;18.60;61.90
4433;DHT22;2229;48.708;9.706;2023-05-24T14:40:07;18.60;61.30
4433;DHT22;2229;48.708;9.706;2023-05-24T14:42:34;18.40;60.20
4433;DHT22;2229;48.708;9.706;2023-05-24T14:45:02;18.40;59.90
4433;DHT22;2229;48.708;9.706;2023-05-24T14:47:29;18.30;59.60
4433;DHT22;2229;48.708;9.706;2023-05-24T14:49:56;18.20;60.20
4433;DHT22;2229;48.708;9.706;2023-05-24T14:52:24;18.20;59.80
4433;DHT22;2229;48.708;9.706;2023-05-24T14:54:51;18.20;59.40
4433;DHT22;2229;48.708;9.706;2023-05-24T14:57:19;18.10;58.80
4433;DHT22;2229;48.708;9.706;2023-05-24T14:59:47;18.10;58.60
4433;DHT22;2229;48.708;9.706;2023-05-24T15:02:14;18.20;58.80
4433;DHT22;2229;48.708;9.706;2023-05-24T15:04:41;18.30;60.10
4433;DHT22;2229;48.708;9.706;2023-05-24T15:07:10;18.40;60.70
4433;DHT22;2229;48.708;9.706;2023-05-24T15:09:38;18.60;60.80
4433;DHT22;2229;48.708;9.706;2023-05-24T15:12:06;18.70;60.80
4433;DHT22;2229;48.708;9.706;2023-05-24T15:14:36;18.80;59.90
4433;DHT22;2229;48.708;9.706;2023-05-24T15:17:03;18.90;59.50
4433;DHT22;2229;48.708;9.706;2023-05-24T15:19:31;19.00;59.50
4433;DHT22;2229;48.708;9.706;2023-05-24T15:21:58;19.10;59.40
4433;DHT22;2229;48.708;9.706;2023-05-24T15:24:25;19.20;58.40
4433;DHT22;2229;48.708;9.706;2023-05-24T15:26:53;19.20;58.30
4433;DHT22;2229;48.708;9.706;2023-05-24T15:29:20;19.20;57.60
4433;DHT22;2229;48.708;9.706;2023-05-24T15:31:48;19.20;57.30
4433;DHT22;2229;48.708;9.706;2023-05-24T15:34:15;19.30;57.10
4433;DHT22;2229;48.708;9.706;2023-05-24T15:36:44;19.30;56.40
4433;DHT22;2229;48.708;9.706;2023-05-24T15:39:11;19.30;54.80
4433;DHT22;2229;48.708;9.706;2023-05-24T15:41:38;19.30;54.10
4433;DHT22;2229;48.708;9.706;2023-05-24T15:44:05;19.20;53.60
4433;DHT22;2229;48.708;9.706;2023-05-24T15:46:33;19.20;52.50
4433;DHT22;2229;48.708;9.706;2023-05-24T15:49:02;19.20;52.30
4433;DHT22;2229;48.708;9.706;2023-05-24T15:51:30;19.10;52.30
4433;DHT22;2229;48.708;9.706;2023-05-24T15:53:57;19.00;52.00
4433;DHT22;2229;48.708;9.706;2023-05-24T15:56:24;19.00;51.80
4433;DHT22;2229;48.708;9.706;2023-05-24T15:58:53;19.00;52.40
4433;DHT22;2229;48.708;9.706;2023-05-24T16:01:20;19.00;52.90
4433;DHT22;2229;48.708;9.706;2023-05-24T16:03:48;19.10;53.00
4433;DHT22;2229;48.708;9.706;2023-05-24T16:06:16;19.00;52.40
4433;DHT22;2229;48.708;9.706;2023-05-24T16:08:44;19.00;52.30
4433;DHT22;2229;48.708;9.706;2023-05-24T16:11:11;19.00;52.60
4433;DHT22;2229;48.708;9.706;2023-05-24T16:13:38;19.00;52.90